Time;durP1;ratioP1;P1;durP2;ratioP2;P2;SDS_P1;SDS_P2;PMS_P1;PMS_P2;Temp;Humidity;BMP_temperature;BMP_pressure;BME280_temperature;BME280_humidity;BME280_pressure;Samples;Min_cycle;Max_cycle;Signal;HPM_P1;HPM_P2
2023/05/14 00:00:58;;;;;;;10.30;3.60;;;;;;;7.46;83.08;100771.70;106954;1280;22646;-51
2023/05/14 00:03:25;;;;;;;14.00;4.90;;;;;;;7.36;83.38;100788.16;107064;1280;22525;-45
2023/05/14 00:05:52;;;;;;;6.40;3.80;;;;;;;7.22;84.35;100786.13;106888;1281;25467;-51
2023/05/14 00:08:19;;;;;;;8.20;4.10;;;;;;;7.13;85.38;100784.20;106597;1281;24170;-45
2023/05/14 00:10:46;;;;;;;11.50;4.60;;;;;;;7.08;85.73;100785.66;106545;1281;22567;-52
2023/05/14 00:13:13;;;;;;;7.20;3.70;;;;;;;7.05;86.38;100789.22;106712;1281;26631;-51
2023/05/14 00:15:40;;;;;;;9.40;4.10;;;;;;;7.03;86.44;100785.20;107148;1281;22121;-52
2023/05/14 00:18:10;;;;;;;9.10;5.20;;;;;;;7.00;86.65;100786.16;106543;1281;22539;-43
2023/05/14 00:20:38;;;;;;;13.70;5.60;;;;;;;6.97;86.89;100789.41;106528;1281;25354;-51
2023/05/14 00:23:05;;;;;;;10.30;4.20;;;;;;;6.98;87.25;100794.45;106670;1281;22537;-51
2023/05/14 00:25:32;;;;;;;11.70;5.60;;;;;;;6.98;87.16;100789.58;106763;1281;22666;-44
2023/05/14 00:27:59;;;;;;;10.20;4.70;;;;;;;6.95;87.14;100787.10;106948;1281;25227;-44
2023/05/14 00:30:26;;;;;;;12.40;5.50;;;;;;;6.91;87.34;100787.88;106760;1281;25521;-44
2023/05/14 00:32:52;;;;;;;12.40;4.00;;;;;;;6.89;87.51;100793.89;106868;1281;22546;-52
2023/05/14 00:35:20;;;;;;;8.00;4.50;;;;;;;6.92;87.52;100798.49;106666;1281;22533;-51
2023/05/14 00:37:47;;;;;;;11.50;4.10;;;;;;;6.94;87.12;100796.79;106977;1281;22527;-54
2023/05/14 00:40:14;;;;;;;5.40;3.60;;;;;;;6.96;87.31;100790.92;106634;1281;24163;-46
2023/05/14 00:42:41;;;;;;;8.60;3.80;;;;;;;6.99;87.28;100792.20;107055;1281;22572;-46
2023/05/14 00:45:09;;;;;;;7.60;4.20;;;;;;;7.02;86.97;100793.17;106596;1281;22726;-43
2023/05/14 00:47:38;;;;;;;8.80;3.90;;;;;;;7.00;86.38;100788.92;106841;1281;24207;-53
2023/05/14 00:50:05;;;;;;;15.20;4.70;;;;;;;6.97;86.44;100791.48;106520;1281;24219;-45
2023/05/14 00:52:33;;;;;;;8.80;4.60;;;;;;;6.99;86.58;100793.61;107027;1281;24297;-45
2023/05/14 00:55:02;;;;;;;9.00;5.00;;;;;;;7.04;86.37;100792.14;106500;1281;22528;-52
2023/05/14 00:57:29;;;;;;;11.40;4.60;;;;;;;7.05;85.62;100789.75;106404;1281;22541;-43
2023/05/14 00:59:57;;;;;;;12.90;4.50;;;;;;;7.06;85.29;100789.41;107283;1281;22558;-45
2023/05/14 01:02:24;;;;;;;9.20;4.50;;;;;;;7.05;85.01;100790.27;106683;1281;22615;-44
2023/05/14 01:04:51;;;;;;;10.20;4.20;;;;;;;7.03;84.90;100789.36;106623;1280;22544;-44
2023/05/14 01:07:39;;;;;;;14.10;4.70;;;;;;;7.01;85.04;100790.88;106893;1280;22527;-44
2023/05/14 01:10:31;;;;;;;8.20;5.00;;;;;;;7.02;85.21;100796.63;106732;1280;24357;-44
2023/05/14 01:13:43;;;;;;;7.90;4.60;;;;;;;7.04;85.66;100795.80;107311;1280;25626;-44
2023/05/14 01:16:12;;;;;;;11.20;4.80;;;;;;;7.04;85.70;100798.23;106513;1286;22647;-44
2023/05/14 01:18:40;;;;;;;12.20;5.90;;;;;;;7.06;85.50;100796.00;106502;1286;25363;-44
2023/05/14 01:21:41;;;;;;;12.20;5.30;;;;;;;7.07;85.82;100796.89;106808;1286;22537;-46
2023/05/14 01:24:08;;;;;;;7.40;4.20;;;;;;;7.05;84.99;100812.47;106236;1292;24220;-44
2023/05/14 01:26:35;;;;;;;11.20;3.70;;;;;;;6.98;84.70;100805.38;106039;1292;22647;-51
2023/05/14 01:29:19;;;;;;;10.30;4.50;;;;;;;6.90;84.72;100796.88;106105;1292;24224;-45
2023/05/14 01:31:46;;;;;;;9.10;4.20;;;;;;;6.83;84.82;100799.31;105963;1292;22559;-43
2023/05/14 01:34:13;;;;;;;11.50;4.60;;;;;;;6.80;85.50;100802.38;106083;1292;22603;-44
2023/05/14 01:36:41;;;;;;;11.90;5.00;;;;;;;6.77;85.80;100798.48;106124;1293;22577;-52
2023/05/14 01:39:08;;;;;;;15.00;5.10;;;;;;;6.72;86.26;100801.48;106589;1292;22546;-44
2023/05/14 01:41:36;;;;;;;11.50;5.60;;;;;;;6.70;86.42;100804.20;106074;1293;22603;-52
2023/05/14 01:44:03;;;;;;;12.80;5.50;;;;;;;6.71;86.67;100798.48;106055;1293;24291;-51
2023/05/14 01:46:31;;;;;;;9.40;5.90;;;;;;;6.71;86.61;100797.98;106115;1292;22551;-51
2023/05/14 01:48:59;;;;;;;14.40;5.50;;;;;;;6.68;86.42;100792.72;106139;1292;24999;-43
2023/05/14 01:51:26;;;;;;;15.40;5.30;;;;;;;6.62;86.31;100797.61;106510;1286;22539;-43
2023/05/14 01:53:53;;;;;;;10.20;4.50;;;;;;;6.60;86.42;100795.48;106767;1286;25276;-45
2023/05/14 01:56:22;;;;;;;17.10;5.70;;;;;;;6.61;86.60;100799.15;106632;1286;24277;-45
2023/05/14 01:58:49;;;;;;;10.00;4.70;;;;;;;6.63;86.40;100800.58;106777;1286;22536;-51
2023/05/14 02:01:16;;;;;;;12.40;5.80;;;;;;;6.57;85.78;100794.20;106875;1280;24202;-45
2023/05/14 02:03:43;;;;;;;8.50;4.70;;;;;;;6.48;85.94;100797.09;107345;1280;22201;-45
2023/05/14 02:06:10;;;;;;;8.50;4.80;;;;;;;6.38;86.34;100797.54;107227;1280;22553;-44
2023/05/14 02:08:37;;;;;;;14.50;5.80;;;;;;;6.32;86.89;100801.71;106981;1280;22542;-51
2023/05/14 02:11:04;;;;;;;24.00;6.50;;;;;;;6.33;87.37;100800.55;106505;1280;22677;-45
2023/05/14 02:13:31;;;;;;;14.10;5.70;;;;;;;6.36;87.31;100806.65;106563;1280;24595;-45
2023/05/14 02:15:58;;;;;;;10.40;5.00;;;;;;;6.36;87.01;100813.77;107098;1280;25405;-43
2023/05/14 02:18:25;;;;;;;20.50;4.90;;;;;;;6.32;86.82;100824.40;106963;1280;22523;-44
2023/05/14 02:20:52;;;;;;;6.80;4.30;;;;;;;6.27;86.85;100818.92;106873;1280;22539;-45
2023/05/14 02:23:19;;;;;;;9.60;4.30;;;;;;;6.26;87.03;100805.70;106671;1280;22543;-45
2023/05/14 02:25:56;;;;;;;11.50;4.60;;;;;;;6.23;87.63;100808.77;106977;1280;22534;-45
2023/05/14 02:28:23;;;;;;;13.10;4.60;;;;;;;6.24;87.94;100811.55;107069;1279;22545;-51
2023/05/14 02:30:50;;;;;;;9.50;4.70;;;;;;;6.24;88.32;100810.19;107046;1280;22517;-43
2023/05/14 02:33:17;;;;;;;6.00;4.60;;;;;;;6.22;88.21;100802.34;106650;1280;25390;-44
2023/05/14 02:35:45;;;;;;;13.20;5.70;;;;;;;6.21;88.36;100807.86;106888;1280;23868;-43
2023/05/14 02:38:12;;;;;;;6.30;4.90;;;;;;;6.25;88.43;100804.83;107127;1280;25944;-45
2023/05/14 02:40:39;;;;;;;10.70;3.90;;;;;;;6.32;88.90;100810.72;107249;1280;22669;-44
2023/05/14 02:43:06;;;;;;;8.50;5.00;;;;;;;6.35;88.74;100811.49;106893;1280;22542;-44
2023/05/14 02:45:34;;;;;;;14.30;5.30;;;;;;;6.36;88.32;100818.98;106938;1280;22531;-43
2023/05/14 02:48:01;;;;;;;14.50;4.60;;;;;;;6.38;88.03;100817.30;106823;1280;22637;-51
2023/05/14 02:50:29;;;;;;;16.20;7.30;;;;;;;6.44;88.45;100813.80;107262;1280;22603;-44
2023/05/14 02:52:56;;;;;;;11.50;5.40;;;;;;;6.50;88.59;100816.90;106901;1280;22624;-45
2023/05/14 02:55:25;;;;;;;8.70;4.90;;;;;;;6.56;88.18;100826.04;106908;1280;22527;-51
2023/05/14 02:57:52;;;;;;;9.60;4.00;;;;;;;6.59;87.84;100820.77;106871;1280;22525;-43
2023/05/14 03:00:19;;;;;;;7.30;4.30;;;;;;;6.67;88.43;100816.61;107072;1280;25344;-51
2023/05/14 03:02:47;;;;;;;13.10;4.90;;;;;;;6.75;88.35;100820.63;106790;1280;24140;-44
2023/05/14 03:05:14;;;;;;;12.50;4.80;;;;;;;6.82;87.82;100822.69;107139;1280;25315;-53
2023/05/14 03:07:41;;;;;;;8.30;4.30;;;;;;;6.87;87.33;100824.55;106809;1281;22676;-51
2023/05/14 03:10:09;;;;;;;6.10;4.10;;;;;;;6.92;87.20;100827.98;106856;1280;25325;-44
2023/05/14 03:12:36;;;;;;;7.10;4.10;;;;;;;6.93;87.03;100820.18;106793;1280;22525;-45
2023/05/14 03:15:03;;;;;;;8.50;4.50;;;;;;;6.95;87.12;100820.73;107014;1280;22526;-44
2023/05/14 03:17:30;;;;;;;7.70;4.40;;;;;;;6.98;87.07;100819.23;107025;1280;24612;-45
2023/05/14 03:19:57;;;;;;;11.70;4.90;;;;;;;7.00;87.05;100824.32;107000;1280;22609;-52
2023/05/14 03:22:25;;;;;;;11.60;4.40;;;;;;;7.03;87.65;100825.09;106841;1259;24199;-45
2023/05/14 03:24:52;;;;;;;15.30;4.90;;;;;;;7.11;87.52;100832.73;107174;1280;22539;-44
2023/05/14 03:27:19;;;;;;;11.60;4.90;;;;;;;7.17;87.49;100831.83;107165;1280;22145;-43
2023/05/14 03:29:46;;;;;;;19.40;5.00;;;;;;;7.24;87.88;100827.80;106882;1280;24038;-52
2023/05/14 03:32:13;;;;;;;13.10;4.70;;;;;;;7.36;87.84;100820.79;106907;1280;25415;-43
2023/05/14 03:34:41;;;;;;;5.90;4.20;;;;;;;7.47;87.67;100826.06;106869;1280;22578;-43
2023/05/14 03:37:08;;;;;;;8.90;4.10;;;;;;;7.60;87.62;100833.44;106933;1280;24132;-45
2023/05/14 03:39:35;;;;;;;12.60;4.70;;;;;;;7.73;87.62;100830.57;107055;1280;25474;-47
2023/05/14 03:42:04;;;;;;;10.30;4.40;;;;;;;7.89;87.45;100830.90;107155;1280;22529;-52
2023/05/14 03:44:31;;;;;;;14.20;4.80;;;;;;;8.05;86.99;100825.11;106990;1280;24224;-51
2023/05/14 03:46:57;;;;;;;11.00;5.00;;;;;;;8.21;86.55;100832.52;107081;1280;25613;-45
2023/05/14 03:49:25;;;;;;;12.20;5.00;;;;;;;8.34;86.30;100833.13;107139;1256;22587;-53
2023/05/14 03:51:52;;;;;;;10.80;4.80;;;;;;;8.45;86.48;100828.83;106613;1280;25281;-51
2023/05/14 03:54:19;;;;;;;11.20;4.20;;;;;;;8.58;86.45;100828.34;106701;1280;25284;-45
2023/05/14 03:56:46;;;;;;;11.80;4.40;;;;;;;8.71;86.31;100828.02;106975;1280;22534;-52
2023/05/14 03:59:13;;;;;;;13.20;6.20;;;;;;;8.84;86.02;100832.75;106834;1280;25548;-51
2023/05/14 04:01:40;;;;;;;16.10;5.90;;;;;;;8.95;85.68;100826.66;106935;1280;25406;-53
2023/05/14 04:04:07;;;;;;;22.30;6.60;;;;;;;9.08;85.07;100828.24;106868;1280;22518;-45
2023/05/14 04:06:34;;;;;;;7.90;5.20;;;;;;;9.19;84.25;100832.75;106943;1280;22774;-51
2023/05/14 04:09:02;;;;;;;14.40;4.70;;;;;;;9.29;82.60;100830.80;106821;1273;22523;-46
2023/05/14 04:11:29;;;;;;;5.80;4.20;;;;;;;9.40;81.23;100830.79;106712;1280;22534;-47
2023/05/14 04:13:57;;;;;;;11.60;4.80;;;;;;;9.54;79.73;100834.61;106728;1280;22776;-45
2023/05/14 04:16:23;;;;;;;9.60;4.50;;;;;;;9.66;77.78;100826.40;107320;1280;22532;-44
2023/05/14 04:18:50;;;;;;;5.30;4.40;;;;;;;9.78;77.04;100824.13;106927;1280;25304;-51
2023/05/14 04:21:17;;;;;;;6.80;4.40;;;;;;;9.89;75.92;100821.79;107217;1280;22644;-44
2023/05/14 04:23:44;;;;;;;7.60;3.80;;;;;;;10.01;75.22;100815.66;106772;1257;25680;-43
2023/05/14 04:26:12;;;;;;;6.90;4.40;;;;;;;10.14;74.80;100815.27;106874;1280;24005;-44
2023/05/14 04:28:39;;;;;;;4.40;3.80;;;;;;;10.32;74.46;100815.82;107337;1280;24234;-45
2023/05/14 04:31:06;;;;;;;7.90;4.20;;;;;;;10.49;74.00;100814.22;106427;1280;22563;-51
2023/05/14 04:33:33;;;;;;;7.40;4.30;;;;;;;10.65;72.85;100814.02;106904;1280;23674;-44
2023/05/14 04:36:00;;;;;;;10.20;4.80;;;;;;;10.80;71.92;100812.91;107099;1280;22599;-46
2023/05/14 04:38:27;;;;;;;7.40;4.20;;;;;;;10.97;71.43;100812.33;107154;1280;22540;-52
2023/05/14 04:40:55;;;;;;;8.30;4.60;;;;;;;11.12;71.04;100816.77;107461;1280;22234;-52
2023/05/14 04:43:22;;;;;;;6.50;4.30;;;;;;;11.28;70.93;100811.98;106739;1280;25268;-44
2023/05/14 04:45:51;;;;;;;7.60;4.00;;;;;;;11.44;70.29;100808.39;107406;1280;24261;-52
2023/05/14 04:48:18;;;;;;;12.50;4.30;;;;;;;11.60;70.23;100805.49;106893;1280;25223;-45
2023/05/14 04:50:45;;;;;;;5.50;4.10;;;;;;;11.76;70.16;100803.10;107082;1281;22521;-45
2023/05/14 04:53:12;;;;;;;4.70;3.70;;;;;;;11.93;69.95;100801.09;106840;1280;24197;-44
2023/05/14 04:55:40;;;;;;;6.10;3.70;;;;;;;12.10;69.58;100801.65;107076;1280;22615;-52
2023/05/14 04:58:07;;;;;;;5.80;4.10;;;;;;;12.28;68.93;100801.66;106786;1280;22560;-44
2023/05/14 05:00:34;;;;;;;11.40;3.80;;;;;;;12.45;68.48;100800.46;107072;1280;25335;-53
2023/05/14 05:03:01;;;;;;;9.90;4.40;;;;;;;12.62;68.44;100797.83;106827;1280;24892;-52
2023/05/14 05:05:28;;;;;;;12.40;4.60;;;;;;;12.81;68.19;100796.42;106768;1280;25469;-44
2023/05/14 05:07:55;;;;;;;13.60;4.20;;;;;;;13.01;67.49;100794.80;107904;1280;22530;-53
2023/05/14 05:10:22;;;;;;;12.00;3.40;;;;;;;13.20;66.99;100789.17;107368;1280;22546;-53
2023/05/14 05:12:49;;;;;;;10.20;3.80;;;;;;;13.41;66.43;100787.72;107184;1280;25445;-45
2023/05/14 05:15:16;;;;;;;14.80;3.80;;;;;;;13.62;65.91;100787.27;107226;1280;26627;-44
2023/05/14 05:17:43;;;;;;;16.00;3.40;;;;;;;13.84;65.86;100787.70;107051;1280;22538;-46
2023/05/14 05:20:11;;;;;;;10.40;3.80;;;;;;;14.05;65.53;100786.16;107033;1280;24206;-53
2023/05/14 05:22:38;;;;;;;9.10;3.80;;;;;;;14.26;65.19;100786.55;106972;1280;22540;-46
2023/05/14 05:25:06;;;;;;;6.60;3.50;;;;;;;14.47;64.81;100787.63;106960;1280;22694;-52
2023/05/14 05:27:33;;;;;;;13.00;3.60;;;;;;;14.68;64.44;100790.45;107080;1280;22549;-54
2023/05/14 05:30:01;;;;;;;6.90;3.70;;;;;;;14.88;63.95;100792.55;106794;1280;22201;-46
2023/05/14 05:32:28;;;;;;;8.50;3.80;;;;;;;15.07;63.05;100792.53;107343;1280;22538;-53
2023/05/14 05:34:55;;;;;;;6.70;3.20;;;;;;;15.26;62.56;100788.11;107116;1259;24209;-45
2023/05/14 05:37:22;;;;;;;8.40;3.40;;;;;;;15.45;61.74;100791.75;107136;1280;25332;-54
2023/05/14 05:39:49;;;;;;;6.00;3.00;;;;;;;15.64;60.37;100794.16;106935;1280;114749;-45
2023/05/14 05:42:16;;;;;;;4.60;2.60;;;;;;;15.82;59.12;100792.71;107078;1280;22693;-43
2023/05/14 05:44:43;;;;;;;7.60;2.70;;;;;;;16.00;58.45;100793.34;107037;1280;22640;-54
2023/05/14 05:47:10;;;;;;;4.00;2.50;;;;;;;16.19;57.68;100794.64;106899;1280;25329;-45
2023/05/14 05:49:37;;;;;;;5.10;3.00;;;;;;;16.37;56.47;100791.71;106919;1280;22549;-45
2023/05/14 05:52:04;;;;;;;4.20;2.50;;;;;;;16.55;55.27;100792.30;107390;1270;24208;-45
2023/05/14 05:54:31;;;;;;;4.30;2.70;;;;;;;16.72;54.46;100791.48;106833;1280;22533;-51
2023/05/14 05:56:58;;;;;;;6.70;2.70;;;;;;;16.91;53.21;100792.41;106658;1280;22539;-46
2023/05/14 05:59:25;;;;;;;4.90;2.20;;;;;;;17.08;52.15;100792.98;107260;1280;24359;-52
2023/05/14 06:01:52;;;;;;;4.40;2.50;;;;;;;17.25;51.55;100792.30;107200;1280;22521;-45
2023/05/14 06:04:19;;;;;;;5.20;2.60;;;;;;;17.41;51.12;100791.27;107213;1280;22526;-51
2023/05/14 06:06:46;;;;;;;5.30;2.70;;;;;;;17.59;50.86;100789.49;107073;1280;22517;-44
2023/05/14 06:09:13;;;;;;;4.60;2.10;;;;;;;17.76;49.13;100788.10;106920;1280;25322;-53
2023/05/14 06:11:40;;;;;;;7.70;2.50;;;;;;;17.91;48.74;100785.83;107105;1280;22523;-45
2023/05/14 06:14:07;;;;;;;5.10;2.90;;;;;;;18.08;48.40;100781.91;106936;1280;22640;-47
2023/05/14 06:16:34;;;;;;;8.10;2.80;;;;;;;18.25;48.39;100782.40;107243;1280;25892;-53
2023/05/14 06:19:01;;;;;;;4.50;2.70;;;;;;;18.41;48.13;100781.29;107459;1280;22549;-45
2023/05/14 06:21:28;;;;;;;4.90;2.30;;;;;;;18.59;47.26;100779.98;107076;1280;25340;-53
2023/05/14 06:23:55;;;;;;;4.00;2.00;;;;;;;18.76;46.63;100779.90;106673;1280;25475;-45
2023/05/14 06:26:22;;;;;;;7.10;2.10;;;;;;;18.91;45.96;100781.81;106859;1280;25471;-44
2023/05/14 06:28:49;;;;;;;5.60;1.90;;;;;;;19.07;45.15;100782.27;106642;1280;22527;-53
2023/05/14 06:31:17;;;;;;;7.50;1.70;;;;;;;19.22;44.92;100778.48;107030;1280;22547;-46
2023/05/14 06:33:44;;;;;;;5.80;1.80;;;;;;;19.38;44.60;100775.93;107288;1280;22897;-44
2023/05/14 06:36:11;;;;;;;2.10;1.70;;;;;;;19.53;43.86;100777.25;106694;1280;22571;-44
2023/05/14 06:38:38;;;;;;;4.10;2.20;;;;;;;19.65;42.95;100770.17;106937;1280;22544;-46
2023/05/14 06:41:05;;;;;;;7.70;2.30;;;;;;;19.80;42.98;100771.89;106913;1280;25239;-45
2023/05/14 06:43:32;;;;;;;4.90;1.70;;;;;;;19.92;41.62;100770.97;106749;1280;22533;-44
2023/05/14 06:46:00;;;;;;;3.30;1.90;;;;;;;20.02;40.26;100770.64;106902;1280;22656;-46
2023/05/14 06:48:28;;;;;;;2.20;1.30;;;;;;;20.09;38.28;100766.73;106614;1280;22532;-45
2023/05/14 06:50:55;;;;;;;7.10;1.80;;;;;;;20.15;37.62;100767.42;106847;1280;22545;-44
2023/05/14 06:53:22;;;;;;;2.40;1.80;;;;;;;20.20;37.29;100764.05;107164;1280;22536;-46
2023/05/14 06:55:49;;;;;;;3.70;1.60;;;;;;;20.28;37.82;100764.67;106937;1280;24423;-44
2023/05/14 06:58:16;;;;;;;2.10;1.40;;;;;;;20.41;37.20;100764.99;106895;1280;23993;-44
2023/05/14 07:00:43;;;;;;;2.80;1.90;;;;;;;20.52;36.86;100764.64;106994;1280;25347;-53
2023/05/14 07:03:10;;;;;;;4.10;1.70;;;;;;;20.61;35.66;100763.43;106808;1280;22508;-53
2023/05/14 07:05:39;;;;;;;3.10;1.50;;;;;;;20.70;36.74;100757.27;107018;1280;24439;-51
2023/05/14 07:08:06;;;;;;;2.10;1.60;;;;;;;20.82;36.03;100757.07;106868;1280;24274;-54
2023/05/14 07:10:33;;;;;;;2.70;1.40;;;;;;;20.91;36.02;100756.73;107238;1280;23909;-46
2023/05/14 07:13:00;;;;;;;4.20;1.90;;;;;;;21.00;34.34;100753.92;106947;1280;24358;-45
2023/05/14 07:15:27;;;;;;;3.20;2.00;;;;;;;21.06;34.00;100753.73;108451;1280;22317;-54
2023/05/14 07:17:54;;;;;;;3.60;1.90;;;;;;;21.12;33.43;100745.85;107545;1280;25268;-45
2023/05/14 07:20:22;;;;;;;2.90;1.50;;;;;;;21.21;33.25;100748.55;107292;1280;22659;-45
2023/05/14 07:22:51;;;;;;;3.90;1.50;;;;;;;21.31;32.34;100744.65;107447;1280;24628;-53
2023/05/14 07:25:18;;;;;;;2.80;1.50;;;;;;;21.41;32.30;100742.50;107007;1280;24227;-57
2023/05/14 07:27:44;;;;;;;2.60;1.80;;;;;;;21.55;32.03;100740.93;106827;1280;22645;-52
2023/05/14 07:30:12;;;;;;;3.50;1.70;;;;;;;21.71;31.82;100743.30;109270;1280;23025;-52
2023/05/14 07:32:39;;;;;;;2.60;1.60;;;;;;;21.83;33.08;100739.46;110005;1280;22277;-44
2023/05/14 07:35:07;;;;;;;1.90;1.50;;;;;;;21.94;33.37;100739.40;108412;1280;25268;-54
2023/05/14 07:37:34;;;;;;;2.70;1.60;;;;;;;22.05;32.12;100739.32;107861;1280;22532;-45
2023/05/14 07:40:01;;;;;;;2.40;1.40;;;;;;;22.11;30.95;100737.32;107310;1280;22540;-45
2023/05/14 07:42:28;;;;;;;3.90;1.30;;;;;;;22.14;30.01;100736.30;107172;1280;22530;-47
2023/05/14 07:45:04;;;;;;;2.40;1.70;;;;;;;22.17;29.72;100734.78;107429;1280;25412;-45
2023/05/14 07:47:31;;;;;;;2.20;1.10;;;;;;;22.19;30.60;100732.70;107097;1280;23176;-48
2023/05/14 07:49:58;;;;;;;5.60;1.60;;;;;;;22.27;30.02;100733.27;106635;1280;24209;-54
2023/05/14 07:52:25;;;;;;;1.90;1.30;;;;;;;22.38;30.35;100731.25;106722;1280;22523;-46
2023/05/14 07:54:52;;;;;;;5.80;1.50;;;;;;;22.47;29.73;100729.93;106653;1280;24232;-47
2023/05/14 07:57:19;;;;;;;2.10;1.50;;;;;;;22.54;30.31;100728.22;106569;1280;25336;-46
2023/05/14 07:59:46;;;;;;;5.40;1.50;;;;;;;22.64;30.65;100723.88;106981;1279;22526;-51
2023/05/14 08:02:15;;;;;;;2.90;1.40;;;;;;;22.80;30.57;100721.24;107014;1280;22967;-45
2023/05/14 08:04:43;;;;;;;7.50;2.10;;;;;;;22.98;31.26;100722.05;106740;1280;24288;-53
2023/05/14 08:07:10;;;;;;;8.20;1.70;;;;;;;23.15;30.76;100723.06;107196;1280;24761;-53
2023/05/14 08:09:37;;;;;;;6.00;1.70;;;;;;;23.29;30.60;100716.58;107157;1280;22555;-45
2023/05/14 08:12:05;;;;;;;6.40;1.70;;;;;;;23.40;30.07;100714.84;106969;1280;22571;-46
2023/05/14 08:14:32;;;;;;;2.70;1.70;;;;;;;23.52;29.88;100715.50;107397;1280;22532;-46
2023/05/14 08:16:59;;;;;;;4.30;1.60;;;;;;;23.66;30.04;100715.59;106952;1280;24302;-45
2023/05/14 08:19:26;;;;;;;1.60;1.50;;;;;;;23.77;28.92;100710.40;106659;1280;22554;-46
2023/05/14 08:21:53;;;;;;;2.90;1.50;;;;;;;23.77;28.24;100712.73;107268;1280;22465;-45
2023/05/14 08:24:20;;;;;;;4.90;1.60;;;;;;;23.72;27.58;100710.68;106959;1280;25439;-46
2023/05/14 08:26:47;;;;;;;4.70;1.80;;;;;;;23.69;27.68;100711.33;106914;1280;24504;-54
2023/05/14 08:29:14;;;;;;;3.40;2.50;;;;;;;23.70;26.75;100702.20;106780;1280;22553;-45
2023/05/14 08:31:42;;;;;;;2.30;1.40;;;;;;;23.70;27.07;100699.53;107394;1280;24315;-53
2023/05/14 08:34:09;;;;;;;2.10;1.30;;;;;;;23.70;27.24;100694.89;106673;1280;22523;-45
2023/05/14 08:36:37;;;;;;;4.50;1.60;;;;;;;23.75;27.66;100696.13;106971;1280;22777;-46
2023/05/14 08:39:06;;;;;;;4.80;1.70;;;;;;;23.78;27.89;100694.89;106779;1280;24215;-45
2023/05/14 08:41:33;;;;;;;5.40;1.80;;;;;;;23.85;28.54;100698.65;106721;1280;25902;-48
2023/05/14 08:44:08;;;;;;;6.50;1.90;;;;;;;23.89;28.72;100689.89;106740;1280;22528;-45
2023/05/14 08:46:35;;;;;;;6.30;1.80;;;;;;;23.83;28.65;100693.37;106750;1280;22626;-45
2023/05/14 08:49:39;;;;;;;5.00;1.90;;;;;;;23.71;28.70;100691.85;106939;1280;22534;-51
2023/05/14 08:52:10;;;;;;;2.70;1.20;;;;;;;23.52;28.90;100692.02;107014;1280;22515;-46
2023/05/14 08:54:37;;;;;;;4.20;1.70;;;;;;;23.36;28.86;100685.08;107016;1280;25408;-45
2023/05/14 08:57:05;;;;;;;2.80;1.50;;;;;;;23.31;28.88;100681.04;106946;1280;22727;-53
2023/05/14 08:59:31;;;;;;;7.10;1.50;;;;;;;23.40;28.72;100679.77;106916;1280;25204;-47
2023/05/14 09:02:00;;;;;;;1.50;1.30;;;;;;;23.59;28.44;100676.92;106468;1280;22540;-45
2023/05/14 09:04:28;;;;;;;2.20;1.50;;;;;;;23.72;27.86;100679.84;106520;1280;22640;-45
2023/05/14 09:06:55;;;;;;;2.90;1.40;;;;;;;23.74;27.65;100678.90;106803;1280;22807;-52
2023/05/14 09:09:22;;;;;;;3.70;1.80;;;;;;;23.57;27.68;100676.29;106838;1280;24060;-44
2023/05/14 09:11:50;;;;;;;5.80;1.70;;;;;;;23.43;27.94;100674.64;106757;1280;23470;-47
2023/05/14 09:14:17;;;;;;;5.50;2.00;;;;;;;23.41;27.34;100664.75;106994;1280;23871;-52
2023/05/14 09:16:44;;;;;;;4.20;1.60;;;;;;;23.40;27.58;100665.55;106833;1280;22596;-46
2023/05/14 09:19:12;;;;;;;3.90;1.30;;;;;;;23.36;27.50;100663.36;106686;1280;22569;-51
2023/05/14 09:21:39;;;;;;;2.50;2.00;;;;;;;23.42;27.07;100657.58;107196;1280;22523;-53
2023/05/14 09:24:06;;;;;;;4.00;1.70;;;;;;;23.60;26.45;100651.59;106913;1280;22530;-53
2023/05/14 09:26:34;;;;;;;4.60;1.60;;;;;;;23.77;25.83;100647.02;106875;1280;22520;-45
2023/05/14 09:29:01;;;;;;;2.30;1.90;;;;;;;23.98;26.20;100644.58;106957;1280;22530;-53
2023/05/14 09:31:29;;;;;;;7.00;2.70;;;;;;;24.20;25.55;100642.02;107018;1280;22533;-43
2023/05/14 09:33:57;;;;;;;4.20;1.90;;;;;;;24.35;24.89;100642.16;107058;1259;23905;-53
2023/05/14 09:36:25;;;;;;;5.00;1.90;;;;;;;24.44;24.84;100635.30;106868;1281;24251;-44
2023/05/14 09:38:55;;;;;;;3.10;1.50;;;;;;;24.53;24.87;100633.20;107385;1280;24752;-44
2023/05/14 09:41:23;;;;;;;3.80;1.80;;;;;;;24.60;25.22;100632.51;109268;1281;22459;-45
2023/05/14 09:43:50;;;;;;;5.00;1.50;;;;;;;24.60;24.70;100635.85;107294;1281;22200;-45
2023/05/14 09:46:17;;;;;;;5.10;1.80;;;;;;;24.48;24.84;100632.23;106711;1280;22545;-52
2023/05/14 09:48:44;;;;;;;5.10;1.90;;;;;;;24.32;25.74;100634.66;106800;1281;22678;-45
2023/05/14 09:51:12;;;;;;;3.00;1.90;;;;;;;24.14;25.73;100637.70;106666;1281;25521;-46
2023/05/14 09:53:40;;;;;;;3.10;1.70;;;;;;;23.98;25.79;100633.52;108077;1280;22173;-44
2023/05/14 09:56:07;;;;;;;3.80;2.20;;;;;;;23.85;25.77;100630.96;109949;1281;23118;-53
2023/05/14 09:58:34;;;;;;;9.00;2.10;;;;;;;23.80;26.71;100631.36;109843;1281;23105;-44
2023/05/14 10:01:01;;;;;;;3.50;1.60;;;;;;;23.79;26.23;100628.59;109954;1281;22236;-53
2023/05/14 10:03:28;;;;;;;3.10;1.80;;;;;;;23.75;26.32;100624.85;109952;1281;22296;-44
2023/05/14 10:05:58;;;;;;;2.10;1.50;;;;;;;23.75;26.55;100626.80;109833;1280;22643;-52
2023/05/14 10:08:27;;;;;;;2.50;1.90;;;;;;;23.76;26.73;100622.13;107962;1281;22295;-46
2023/05/14 10:10:54;;;;;;;6.90;1.70;;;;;;;23.73;26.53;100619.47;107093;1281;22569;-53
2023/05/14 10:13:23;;;;;;;2.20;1.70;;;;;;;23.72;26.20;100617.91;107073;1281;24810;-52
2023/05/14 10:16:12;;;;;;;4.20;1.60;;;;;;;23.71;26.66;100618.31;107081;1259;22639;-45
2023/05/14 10:18:41;;;;;;;5.60;1.70;;;;;;;23.72;27.71;100616.64;107064;1280;22539;-45
2023/05/14 10:21:08;;;;;;;8.00;1.80;;;;;;;23.76;27.67;100618.23;106887;1281;22548;-46
2023/05/14 10:23:39;;;;;;;4.10;1.80;;;;;;;23.78;27.12;100618.86;107264;1281;22205;-46
2023/05/14 10:26:07;;;;;;;5.30;1.60;;;;;;;23.82;27.26;100620.07;107111;1281;25360;-44
2023/05/14 10:28:34;;;;;;;2.30;1.80;;;;;;;23.89;27.53;100617.05;107129;1281;25485;-54
2023/05/14 10:31:01;;;;;;;4.30;2.10;;;;;;;23.99;27.29;100617.46;107288;1281;22575;-52
2023/05/14 10:33:28;;;;;;;5.60;2.00;;;;;;;24.08;26.73;100617.52;106625;1281;24208;-44
2023/05/14 10:36:06;;;;;;;3.00;1.80;;;;;;;24.23;25.85;100618.70;106811;1281;22589;-45
2023/05/14 10:38:36;;;;;;;3.50;1.70;;;;;;;24.58;25.79;100614.93;106953;1281;24303;-45
2023/05/14 10:41:10;;;;;;;3.20;1.60;;;;;;;25.01;24.88;100611.70;106802;1281;24254;-45
2023/05/14 10:43:38;;;;;;;2.70;1.50;;;;;;;25.43;25.79;100613.30;106723;1281;24340;-55
2023/05/14 10:46:06;;;;;;;3.10;1.50;;;;;;;25.69;24.99;100607.53;107147;1280;22531;-44
2023/05/14 10:48:33;;;;;;;2.20;1.80;;;;;;;25.86;24.65;100601.94;107943;1281;22540;-45
2023/05/14 10:51:01;;;;;;;6.40;2.40;;;;;;;25.76;25.52;100599.12;106737;1281;26648;-45
2023/05/14 10:53:36;;;;;;;7.20;1.90;;;;;;;25.62;24.53;100606.00;107495;1281;22584;-44
2023/05/14 10:56:12;;;;;;;3.40;1.90;;;;;;;25.37;24.64;100602.21;106647;1281;24305;-53
2023/05/14 10:58:41;;;;;;;4.40;1.70;;;;;;;25.37;25.60;100597.58;106739;1281;22565;-45
2023/05/14 11:01:09;;;;;;;5.80;2.10;;;;;;;25.59;25.35;100598.29;107168;1281;22524;-45
2023/05/14 11:03:42;;;;;;;6.30;1.80;;;;;;;25.78;24.91;100595.42;107064;1281;24951;-45
2023/05/14 11:06:10;;;;;;;2.30;1.60;;;;;;;25.97;24.41;100597.86;107272;1281;22517;-46
2023/05/14 11:08:37;;;;;;;1.60;1.50;;;;;;;26.06;23.91;100589.70;106911;1281;22540;-54
2023/05/14 11:11:07;;;;;;;5.80;2.60;;;;;;;26.06;24.33;100596.50;107049;1281;22539;-53
2023/05/14 11:13:34;;;;;;;7.90;3.80;;;;;;;26.00;23.81;100595.73;107016;1281;22629;-45
2023/05/14 11:16:01;;;;;;;6.50;2.30;;;;;;;25.98;23.99;100593.69;106739;1281;22785;-45
2023/05/14 11:18:47;;;;;;;3.60;1.80;;;;;;;26.03;23.69;100597.91;106902;1277;22658;-48
2023/05/14 11:21:16;;;;;;;3.30;1.60;;;;;;;26.03;23.64;100597.55;106533;1281;22543;-56